createdAt,value
2022-11-19T00:00:03.184Z,-0.5
2022-11-19T00:15:02.614Z,-0.5
2022-11-19T00:30:07.929Z,-0.6
2022-11-19T00:45:02.514Z,-0.7
2022-11-19T01:00:03.005Z,-0.7
2022-11-19T01:15:02.373Z,-0.8
2022-11-19T01:30:02.992Z,-0.8
2022-11-19T01:45:02.183Z,-0.9
2022-11-19T02:00:02.565Z,-1.0
2022-11-19T02:15:03.030Z,-1.1
2022-11-19T02:30:02.353Z,-1.2
2022-11-19T02:45:02.781Z,-1.3
2022-11-19T03:00:03.159Z,-1.5
2022-11-19T03:15:02.546Z,-1.9
2022-11-19T03:30:03.027Z,-2.1
2022-11-19T03:45:02.374Z,-2.2
2022-11-19T04:00:03.040Z,-2.3
2022-11-19T04:15:02.259Z,-2.5
2022-11-19T04:30:02.733Z,-2.6
2022-11-19T04:45:03.196Z,-2.6
2022-11-19T05:00:02.648Z,-2.8
2022-11-19T05:15:03.079Z,-2.9
2022-11-19T05:30:02.464Z,-3.0
2022-11-19T05:45:03.069Z,-3.2
2022-11-19T06:00:02.393Z,-3.3
2022-11-19T06:15:02.819Z,-3.4
2022-11-19T06:30:02.264Z,-3.5
2022-11-19T06:45:02.712Z,-3.7
2022-11-19T07:00:03.155Z,-3.7
2022-11-19T07:15:04.540Z,-3.8
2022-11-19T07:30:02.097Z,-3.8
2022-11-19T07:45:02.453Z,-3.7
2022-11-19T08:00:03.095Z,-3.7
2022-11-19T08:15:02.352Z,-3.5
2022-11-19T08:30:02.790Z,-3.3
2022-11-19T08:45:03.191Z,-2.9
2022-11-19T09:00:06.232Z,-2.2
2022-11-19T09:15:03.129Z,0.0
2022-11-19T09:30:02.508Z,1.1
2022-11-19T09:45:03.129Z,0.6
2022-11-19T10:00:02.361Z,-0.3
2022-11-19T10:15:02.836Z,-0.7
2022-11-19T10:30:02.259Z,-0.6
2022-11-19T10:45:02.689Z,0.0
2022-11-19T11:00:03.148Z,0.2
2022-11-19T11:15:02.600Z,0.9
2022-11-19T11:30:03.144Z,1.3
2022-11-19T11:45:02.473Z,0.8
2022-11-19T12:00:03.113Z,1.5
2022-11-19T12:15:02.374Z,2.8
2022-11-19T12:30:02.795Z,3.2
2022-11-19T12:45:03.198Z,2.1
2022-11-19T13:00:02.663Z,1.0
2022-11-19T13:15:03.176Z,0.6
2022-11-19T13:30:02.527Z,0.5
2022-11-19T13:45:03.174Z,0.3
2022-11-19T14:00:02.395Z,0.3
2022-11-19T14:15:02.841Z,0.2
2022-11-19T14:30:02.277Z,0.1
2022-11-19T14:45:02.713Z,0.0
2022-11-19T15:00:03.173Z,-0.3
2022-11-19T15:15:02.594Z,-0.7
2022-11-19T15:30:03.256Z,-1.3
2022-11-19T15:45:02.430Z,-1.8
2022-11-19T16:00:02.970Z,-2.3
2022-11-19T16:15:02.343Z,-2.5
2022-11-19T16:30:02.804Z,-2.8
2022-11-19T16:45:03.216Z,-2.9
2022-11-19T17:00:02.689Z,-3.2
2022-11-19T17:15:03.211Z,-3.5
2022-11-19T17:30:02.566Z,-3.6
2022-11-19T17:45:09.216Z,-3.9
2022-11-19T18:00:03.430Z,-4.0
2022-11-19T18:15:02.875Z,-4.2
2022-11-19T18:30:02.296Z,-4.3
2022-11-19T18:45:02.730Z,-4.4
2022-11-19T19:00:03.235Z,-4.4
2022-11-19T19:15:02.600Z,-4.6
2022-11-19T19:30:03.248Z,-4.7
2022-11-19T19:45:02.471Z,-4.8
2022-11-19T20:00:02.910Z,-4.8
2022-11-19T20:15:02.335Z,-4.9
2022-11-19T20:30:03.532Z,-5.1
2022-11-19T20:45:03.262Z,-5.3
2022-11-19T21:00:02.628Z,-5.4
2022-11-19T21:15:03.283Z,-5.5
2022-11-19T21:30:02.518Z,-5.6
2022-11-19T21:45:02.964Z,-5.8
2022-11-19T22:00:02.386Z,-5.8
2022-11-19T22:15:02.852Z,-6.0
2022-11-19T22:30:05.852Z,-6.0
2022-11-19T22:45:02.729Z,-6.0
2022-11-19T23:00:03.304Z,-6.1
2022-11-19T23:30:03.038Z,-6.1
2022-11-19T23:45:02.452Z,-6.2
